Time;durP1;ratioP1;P1;durP2;ratioP2;P2;SDS_P1;SDS_P2;PMS_P1;PMS_P2;Temp;Humidity;BMP_temperature;BMP_pressure;BME280_temperature;BME280_humidity;BME280_pressure;Samples;Min_cycle;Max_cycle;Signal;HPM_P1;HPM_P2
2024/01/06 00:01:46;;;;;;;;;;;;;;;10.97;61.58;99233.47;4973333;28;6784;-78
2024/01/06 00:04:12;;;;;;;;;;;;;;;10.98;62.17;99227.53;4960396;28;7822;-78
2024/01/06 00:06:38;;;;;;;;;;;;;;;11.00;61.88;99242.09;4959062;28;7584;-78
2024/01/06 00:09:03;;;;;;;;;;;;;;;11.01;62.24;99242.13;4966180;28;7219;-77
2024/01/06 00:11:29;;;;;;;;;;;;;;;11.04;61.66;99249.06;4976978;28;8483;-78
2024/01/06 00:13:54;;;;;;;;;;;;;;;11.06;61.89;99248.28;4956265;28;6784;-78
2024/01/06 00:16:20;;;;;;;;;;;;;;;11.08;61.54;99251.75;4972002;28;7293;-77
2024/01/06 00:18:47;;;;;;;;;;;;;;;11.12;62.15;99250.13;4972813;28;6800;-78
2024/01/06 00:21:13;;;;;;;;;;;;;;;11.15;62.08;99252.78;4974144;28;7149;-78
2024/01/06 00:23:40;;;;;;;;;;;;;;;11.18;61.80;99268.22;4957550;28;6963;-78
2024/01/06 00:26:07;;;;;;;;;;;;;;;11.18;61.48;99257.97;4958082;28;6800;-78
2024/01/06 00:28:32;;;;;;;;;;;;;;;11.19;61.90;99258.84;4955772;28;6788;-78
2024/01/06 00:30:58;;;;;;;;;;;;;;;11.19;62.02;99254.56;4955979;28;8336;-78
2024/01/06 00:33:23;;;;;;;;;;;;;;;11.20;61.95;99251.22;4954774;28;7163;-78
2024/01/06 00:35:49;;;;;;;;;;;;;;;11.20;62.31;99243.53;4956584;28;7323;-77
2024/01/06 00:38:15;;;;;;;;;;;;;;;11.22;61.91;99248.66;4971100;28;7211;-77
2024/01/06 00:40:40;;;;;;;;;;;;;;;11.24;62.13;99253.03;4955703;28;6941;-77
2024/01/06 00:43:06;;;;;;;;;;;;;;;11.26;61.95;99255.63;4957553;28;7019;-77
2024/01/06 00:45:31;;;;;;;;;;;;;;;11.28;61.81;99253.09;4959011;28;6953;-78
2024/01/06 00:47:57;;;;;;;;;;;;;;;11.29;61.84;99254.81;4956801;28;7067;-77
2024/01/06 00:50:23;;;;;;;;;;;;;;;11.31;62.30;99263.47;4975575;28;6780;-78
2024/01/06 00:52:52;;;;;;;;;;;;;;;11.32;62.33;99257.50;4963300;28;6922;-73
2024/01/06 00:55:19;;;;;;;;;;;;;;;11.33;62.42;99259.22;4982544;28;6969;-75
2024/01/06 00:57:44;;;;;;;;;;;;;;;11.34;61.88;99258.41;4966247;28;6962;-74
2024/01/06 01:00:11;;;;;;;;;;;;;;;11.37;62.36;99263.59;4965254;28;6820;-74
2024/01/06 01:02:37;;;;;;;;;;;;;;;11.38;62.20;99262.75;4968846;28;6849;-74
2024/01/06 01:05:03;;;;;;;;;;;;;;;11.39;61.82;99267.06;4966129;28;6946;-74
2024/01/06 01:07:28;;;;;;;;;;;;;;;11.44;62.02;99269.75;4976179;28;6784;-74
2024/01/06 01:09:56;;;;;;;;;;;;;;;11.44;62.30;99270.63;4985789;28;9968;-76
2024/01/06 01:12:22;;;;;;;;;;;;;;;11.47;62.28;99275.84;4972890;28;7170;-75
2024/01/06 01:14:47;;;;;;;;;;;;;;;11.47;62.18;99275.00;4967401;28;7023;-75
2024/01/06 01:17:13;;;;;;;;;;;;;;;11.48;62.10;99276.72;4983633;28;6959;-74
2024/01/06 01:19:38;;;;;;;;;;;;;;;11.49;61.59;99281.03;4968660;28;7009;-74
2024/01/06 01:22:04;;;;;;;;;;;;;;;11.48;62.42;99277.56;4978603;28;6981;-74
2024/01/06 01:24:30;;;;;;;;;;;;;;;11.47;62.01;99280.97;4969664;28;7173;-74
2024/01/06 01:26:55;;;;;;;;;;;;;;;11.46;62.11;99288.66;4969513;28;6923;-74
2024/01/06 01:29:21;;;;;;;;;;;;;;;11.46;62.61;99292.06;4985893;28;7467;-74
2024/01/06 01:31:47;;;;;;;;;;;;;;;11.46;62.10;99289.50;4967593;28;6752;-75
2024/01/06 01:34:12;;;;;;;;;;;;;;;11.47;62.09;99300.66;4968548;28;6942;-75
2024/01/06 01:36:38;;;;;;;;;;;;;;;11.48;62.26;99298.09;4974728;28;6937;-74
2024/01/06 01:39:04;;;;;;;;;;;;;;;11.48;62.17;99292.97;4966912;28;8449;-75
2024/01/06 01:41:29;;;;;;;;;;;;;;;11.47;62.20;99298.94;4972499;28;7203;-75
2024/01/06 01:43:57;;;;;;;;;;;;;;;11.45;62.13;99302.31;4970006;28;6828;-74
2024/01/06 01:46:28;;;;;;;;;;;;;;;11.44;61.79;99306.56;4983759;28;6970;-74
2024/01/06 01:48:56;;;;;;;;;;;;;;;11.44;62.39;99311.69;4952682;28;8456;-74
2024/01/06 01:51:28;;;;;;;;;;;;;;;11.44;62.18;99314.25;4975673;28;7227;-76
2024/01/06 01:53:55;;;;;;;;;;;;;;;11.46;61.80;99320.28;4965710;28;7142;-74
2024/01/06 01:56:21;;;;;;;;;;;;;;;11.45;61.68;99327.97;4982971;28;6989;-74
2024/01/06 01:58:47;;;;;;;;;;;;;;;11.46;62.55;99325.41;4967137;28;6828;-74
2024/01/06 02:01:14;;;;;;;;;;;;;;;11.47;62.29;99323.75;4982487;28;6800;-74
2024/01/06 02:03:43;;;;;;;;;;;;;;;11.48;62.43;99325.47;4965181;28;7006;-76
2024/01/06 02:06:10;;;;;;;;;;;;;;;11.49;61.94;99330.66;4965344;28;6800;-75
2024/01/06 02:08:35;;;;;;;;;;;;;;;11.50;62.54;99328.94;4983016;28;7180;-74
2024/01/06 02:11:01;;;;;;;;;;;;;;;11.52;62.29;99333.28;4965550;28;6948;-75
2024/01/06 02:13:37;;;;;;;;;;;;;;;11.53;62.23;99332.47;4975724;28;6962;-76
2024/01/06 02:16:05;;;;;;;;;;;;;;;11.54;62.16;99338.47;4965332;28;6957;-75
2024/01/06 02:18:34;;;;;;;;;;;;;;;11.55;62.47;99335.09;4966983;28;6788;-75
2024/01/06 02:21:01;;;;;;;;;;;;;;;11.56;61.62;99330.81;4969720;28;7273;-74
2024/01/06 02:23:28;;;;;;;;;;;;;;;11.55;62.10;99335.09;4953958;28;6984;-75
2024/01/06 02:25:55;;;;;;;;;;;;;;;11.56;62.26;99335.94;4964572;28;6990;-74
2024/01/06 02:28:21;;;;;;;;;;;;;;;11.56;62.08;99338.50;4967206;28;6792;-74
2024/01/06 02:30:47;;;;;;;;;;;;;;;11.55;62.09;99342.78;4976499;28;6960;-75
2024/01/06 02:33:12;;;;;;;;;;;;;;;11.56;61.74;99341.06;4963747;28;6768;-74
2024/01/06 02:35:39;;;;;;;;;;;;;;;11.56;62.35;99338.50;4984138;28;7096;-74
2024/01/06 02:38:05;;;;;;;;;;;;;;;11.57;61.86;99347.94;4965551;28;7079;-76
2024/01/06 02:40:32;;;;;;;;;;;;;;;11.55;61.73;99345.34;4980795;28;7371;-75
2024/01/06 02:42:58;;;;;;;;;;;;;;;11.56;61.99;99353.91;4979180;28;6804;-76
2024/01/06 02:45:24;;;;;;;;;;;;;;;11.54;62.29;99353.88;4964324;28;6800;-74
2024/01/06 02:47:50;;;;;;;;;;;;;;;11.53;61.74;99357.25;4975468;28;7198;-74
2024/01/06 02:50:16;;;;;;;;;;;;;;;11.50;62.30;99360.63;4963305;28;7206;-74
2024/01/06 02:52:42;;;;;;;;;;;;;;;11.47;62.28;99368.22;4962176;28;7233;-75
2024/01/06 02:55:07;;;;;;;;;;;;;;;11.46;62.43;99369.03;4946885;28;7136;-74
2024/01/06 02:57:33;;;;;;;;;;;;;;;11.46;62.52;99374.16;4962365;28;6855;-73
2024/01/06 02:59:59;;;;;;;;;;;;;;;11.47;61.98;99373.34;4975484;28;6959;-74
2024/01/06 03:02:24;;;;;;;;;;;;;;;11.44;62.15;99377.50;4945768;28;6962;-73
2024/01/06 03:04:50;;;;;;;;;;;;;;;11.44;62.48;99383.53;4964151;28;7002;-74
2024/01/06 03:07:16;;;;;;;;;;;;;;;11.42;62.04;99386.88;4982923;28;6852;-75
2024/01/06 03:09:41;;;;;;;;;;;;;;;11.37;61.95;99390.19;4981948;28;6787;-74
2024/01/06 03:12:07;;;;;;;;;;;;;;;11.34;62.19;99402.91;4979677;28;7010;-76
2024/01/06 03:14:37;;;;;;;;;;;;;;;11.31;61.70;99402.81;4965493;28;7343;-76
2024/01/06 03:17:03;;;;;;;;;;;;;;;11.29;61.86;99401.03;4958661;28;8837;-75
2024/01/06 03:19:30;;;;;;;;;;;;;;;11.24;61.92;99404.34;4956452;28;6800;-76
2024/01/06 03:21:56;;;;;;;;;;;;;;;11.19;61.90;99405.91;4974796;28;6950;-75
2024/01/06 03:24:24;;;;;;;;;;;;;;;11.14;61.94;99401.47;4958836;28;7066;-75
2024/01/06 03:26:50;;;;;;;;;;;;;;;11.11;62.12;99408.25;4977028;28;7203;-76
2024/01/06 03:29:15;;;;;;;;;;;;;;;11.11;61.62;99412.53;4956362;28;6987;-75
2024/01/06 03:31:45;;;;;;;;;;;;;;;11.08;62.07;99407.28;4955821;28;6939;-75
2024/01/06 03:34:11;;;;;;;;;;;;;;;11.06;61.69;99411.50;4960097;28;6927;-76
2024/01/06 03:36:38;;;;;;;;;;;;;;;11.03;61.96;99413.97;4976413;28;6972;-76
2024/01/06 03:39:04;;;;;;;;;;;;;;;11.01;62.02;99410.47;4973585;28;6977;-76
2024/01/06 03:41:30;;;;;;;;;;;;;;;10.98;61.99;99417.25;4961754;28;6808;-76
2024/01/06 03:43:56;;;;;;;;;;;;;;;10.99;62.17;99418.13;4965744;28;6776;-76
2024/01/06 03:46:22;;;;;;;;;;;;;;;10.98;61.96;99424.94;4958860;28;7171;-76
2024/01/06 03:48:48;;;;;;;;;;;;;;;10.99;62.25;99430.97;4974467;28;7089;-76
2024/01/06 03:51:14;;;;;;;;;;;;;;;10.98;62.28;99430.06;4973421;28;6840;-76
2024/01/06 03:53:42;;;;;;;;;;;;;;;10.98;61.64;99440.34;4974154;28;6772;-76
2024/01/06 03:56:08;;;;;;;;;;;;;;;10.97;62.08;99437.75;4973373;28;6800;-76
2024/01/06 03:58:34;;;;;;;;;;;;;;;10.96;62.32;99435.97;4973227;28;8286;-76
2024/01/06 04:01:00;;;;;;;;;;;;;;;10.97;62.06;99437.75;4958023;28;6943;-76
2024/01/06 04:03:26;;;;;;;;;;;;;;;10.97;62.23;99442.88;4957921;28;6768;-76
2024/01/06 04:05:52;;;;;;;;;;;;;;;10.98;62.17;99447.16;4977395;28;7825;-76
2024/01/06 04:08:18;;;;;;;;;;;;;;;10.97;61.94;99437.75;4940406;28;6940;-76
2024/01/06 04:10:43;;;;;;;;;;;;;;;10.96;62.12;99449.69;4975352;28;7095;-76
2024/01/06 04:13:11;;;;;;;;;;;;;;;10.95;62.03;99449.63;4954815;28;6959;-76
2024/01/06 04:15:36;;;;;;;;;;;;;;;10.92;61.97;99447.84;4961488;28;6993;-77
2024/01/06 04:18:04;;;;;;;;;;;;;;;10.90;61.95;99452.03;4973737;28;6851;-76
2024/01/06 04:20:30;;;;;;;;;;;;;;;10.89;61.82;99446.88;4958918;28;7025;-77
2024/01/06 04:22:56;;;;;;;;;;;;;;;10.88;61.74;99452.84;4962828;28;7026;-75
2024/01/06 04:25:22;;;;;;;;;;;;;;;10.87;62.06;99454.50;4963505;28;6887;-75
2024/01/06 04:27:48;;;;;;;;;;;;;;;10.88;61.89;99458.81;4980868;28;6819;-74
2024/01/06 04:30:15;;;;;;;;;;;;;;;10.89;62.30;99455.44;4947278;28;7011;-74
2024/01/06 04:32:41;;;;;;;;;;;;;;;10.88;61.97;99453.69;4981473;28;6792;-74
2024/01/06 04:35:07;;;;;;;;;;;;;;;10.89;61.99;99465.69;4964108;28;7083;-74
2024/01/06 04:37:32;;;;;;;;;;;;;;;10.90;62.06;99456.31;4979205;28;7025;-74
2024/01/06 04:39:58;;;;;;;;;;;;;;;10.90;62.05;99461.44;4962551;28;6772;-75
2024/01/06 04:42:24;;;;;;;;;;;;;;;10.87;61.70;99467.34;4961957;28;6939;-74
2024/01/06 04:44:51;;;;;;;;;;;;;;;10.86;61.88;99465.59;4964671;28;8335;-74
2024/01/06 04:47:17;;;;;;;;;;;;;;;10.84;61.77;99469.81;4983701;28;6780;-75
2024/01/06 04:49:44;;;;;;;;;;;;;;;10.81;61.77;99462.00;4968311;28;7245;-74
2024/01/06 04:52:10;;;;;;;;;;;;;;;10.79;61.59;99466.22;4966874;28;6788;-76
2024/01/06 04:54:35;;;;;;;;;;;;;;;10.76;61.61;99468.69;4963152;28;6935;-73
2024/01/06 04:57:01;;;;;;;;;;;;;;;10.73;61.57;99473.72;4967322;28;6850;-74
2024/01/06 04:59:27;;;;;;;;;;;;;;;10.71;61.84;99476.22;4966389;28;6859;-74
2024/01/06 05:01:53;;;;;;;;;;;;;;;10.69;61.32;99472.75;4964698;28;6780;-74
2024/01/06 05:04:19;;;;;;;;;;;;;;;10.65;61.75;99471.78;4966036;28;6948;-74
2024/01/06 05:06:45;;;;;;;;;;;;;;;10.64;61.75;99480.28;4966133;28;7202;-74
2024/01/06 05:09:11;;;;;;;;;;;;;;;10.64;61.48;99481.97;4962587;28;6763;-73
2024/01/06 05:11:36;;;;;;;;;;;;;;;10.62;61.76;99481.06;4981941;28;6800;-73
2024/01/06 05:14:02;;;;;;;;;;;;;;;10.63;61.50;99487.91;4982379;28;6829;-74
2024/01/06 05:16:27;;;;;;;;;;;;;;;10.63;61.96;99482.78;4980961;28;7508;-73
2024/01/06 05:18:53;;;;;;;;;;;;;;;10.63;61.94;99493.94;4963865;28;7047;-74
2024/01/06 05:21:20;;;;;;;;;;;;;;;10.62;61.52;99501.56;4966219;28;6780;-74
2024/01/06 05:23:46;;;;;;;;;;;;;;;10.60;61.58;99503.19;4969578;28;6941;-73
2024/01/06 05:26:13;;;;;;;;;;;;;;;10.58;61.53;99500.56;4983554;28;7544;-74
2024/01/06 05:28:39;;;;;;;;;;;;;;;10.56;60.91;99502.22;4967784;28;7222;-74
2024/01/06 05:31:05;;;;;;;;;;;;;;;10.53;61.11;99504.69;4966218;28;6977;-73
2024/01/06 05:33:30;;;;;;;;;;;;;;;10.51;61.61;99509.75;4962708;28;7298;-76
2024/01/06 05:35:56;;;;;;;;;;;;;;;10.48;61.66;99509.66;4957086;28;6776;-76
2024/01/06 05:38:22;;;;;;;;;;;;;;;10.46;61.40;99510.41;4946909;28;7292;-76
2024/01/06 05:40:47;;;;;;;;;;;;;;;10.44;61.54;99512.06;4948658;28;7296;-77
2024/01/06 05:43:13;;;;;;;;;;;;;;;10.41;61.39;99513.66;4959352;28;6967;-76
2024/01/06 05:45:41;;;;;;;;;;;;;;;10.40;61.71;99527.28;4965329;28;6927;-75
2024/01/06 05:48:10;;;;;;;;;;;;;;;10.39;61.51;99533.22;4962371;28;8536;-76
2024/01/06 05:50:39;;;;;;;;;;;;;;;10.36;61.28;99537.34;4976117;28;7207;-77
2024/01/06 05:53:05;;;;;;;;;;;;;;;10.28;61.18;99537.97;4959912;28;6980;-76
2024/01/06 05:55:31;;;;;;;;;;;;;;;10.18;61.12;99545.28;4959942;28;8412;-76
2024/01/06 05:57:57;;;;;;;;;;;;;;;10.11;60.85;99551.88;4961607;28;6868;-76
2024/01/06 06:00:22;;;;;;;;;;;;;;;10.04;60.84;99553.31;4961000;28;8461;-77
2024/01/06 06:02:48;;;;;;;;;;;;;;;10.00;60.96;99569.38;4961607;28;7153;-76
2024/01/06 06:05:14;;;;;;;;;;;;;;;9.95;60.91;99566.66;4941189;28;6971;-76
2024/01/06 06:07:40;;;;;;;;;;;;;;;9.89;61.12;99568.13;4956631;28;6995;-76
2024/01/06 06:10:11;;;;;;;;;;;;;;;9.84;61.46;99581.59;4943112;28;6998;-76
2024/01/06 06:12:37;;;;;;;;;;;;;;;9.82;61.26;99574.69;4959979;28;6975;-76
2024/01/06 06:15:05;;;;;;;;;;;;;;;9.81;61.30;99578.94;4962013;28;7103;-75
2024/01/06 06:17:32;;;;;;;;;;;;;;;9.79;60.88;99587.34;4959435;28;7053;-76
2024/01/06 06:19:58;;;;;;;;;;;;;;;9.77;61.10;99589.00;4960365;28;6972;-75
2024/01/06 06:22:26;;;;;;;;;;;;;;;9.72;61.36;99599.06;4958746;28;7220;-76
2024/01/06 06:24:52;;;;;;;;;;;;;;;9.67;60.88;99605.69;4976174;28;6801;-78
2024/01/06 06:27:18;;;;;;;;;;;;;;;9.64;60.95;99608.13;4969365;28;6784;-76
2024/01/06 06:29:43;;;;;;;;;;;;;;;9.62;60.60;99612.31;4957835;28;6987;-76
2024/01/06 06:32:09;;;;;;;;;;;;;;;9.60;60.50;99617.34;4956901;28;6899;-76
2024/01/06 06:34:35;;;;;;;;;;;;;;;9.57;60.74;99619.81;4978467;28;7158;-76
2024/01/06 06:37:00;;;;;;;;;;;;;;;9.52;60.67;99619.63;4958710;28;6933;-77
2024/01/06 06:39:27;;;;;;;;;;;;;;;9.49;60.52;99628.84;4977038;28;7223;-77
2024/01/06 06:41:52;;;;;;;;;;;;;;;9.44;61.25;99631.22;4943611;28;7256;-76
2024/01/06 06:44:18;;;;;;;;;;;;;;;9.41;60.50;99644.75;4945767;28;6945;-76
2024/01/06 06:46:44;;;;;;;;;;;;;;;9.37;60.78;99635.22;4963092;28;6968;-76
2024/01/06 06:49:09;;;;;;;;;;;;;;;9.34;61.00;99647.00;4962158;28;6776;-76
2024/01/06 06:51:35;;;;;;;;;;;;;;;9.31;61.22;99643.53;4963673;28;6899;-76
2024/01/06 06:54:00;;;;;;;;;;;;;;;9.30;61.17;99644.34;4959073;28;9535;-76
2024/01/06 06:56:26;;;;;;;;;;;;;;;9.29;61.23;99645.16;4975319;28;7183;-75
2024/01/06 06:58:52;;;;;;;;;;;;;;;9.28;61.44;99648.53;4957327;28;7515;-75
2024/01/06 07:01:18;;;;;;;;;;;;;;;9.26;60.86;99655.22;4970975;28;7756;-76
2024/01/06 07:03:43;;;;;;;;;;;;;;;9.26;60.92;99657.78;4960057;28;6983;-76
2024/01/06 07:06:13;;;;;;;;;;;;;;;9.25;61.27;99663.72;4973890;28;6776;-76
2024/01/06 07:08:38;;;;;;;;;;;;;;;9.24;61.22;99664.53;4958506;28;7154;-76
2024/01/06 07:11:05;;;;;;;;;;;;;;;9.23;61.04;99677.28;4976579;28;7329;-76
2024/01/06 07:13:31;;;;;;;;;;;;;;;9.21;60.47;99682.31;4962424;28;6780;-76
2024/01/06 07:15:56;;;;;;;;;;;;;;;9.19;60.79;99691.59;4961095;28;6788;-76
2024/01/06 07:18:23;;;;;;;;;;;;;;;9.17;60.76;99696.66;4958905;28;6914;-76
2024/01/06 07:20:49;;;;;;;;;;;;;;;9.14;60.82;99695.63;4960462;28;7053;-75
2024/01/06 07:23:15;;;;;;;;;;;;;;;9.12;61.03;99700.69;4960634;28;6788;-76
2024/01/06 07:25:40;;;;;;;;;;;;;;;9.10;60.43;99706.56;4960058;28;7386;-76
2024/01/06 07:28:08;;;;;;;;;;;;;;;9.08;61.37;99705.59;4955210;28;7194;-76
2024/01/06 07:30:34;;;;;;;;;;;;;;;9.07;60.27;99712.41;4971654;28;6983;-76
2024/01/06 07:33:00;;;;;;;;;;;;;;;9.06;60.91;99718.34;4972838;28;6925;-76
2024/01/06 07:35:26;;;;;;;;;;;;;;;9.07;61.24;99721.75;4964029;28;7671;-77
2024/01/06 07:37:53;;;;;;;;;;;;;;;9.06;61.08;99723.44;4963881;28;7044;-76
2024/01/06 07:40:18;;;;;;;;;;;;;;;9.06;60.73;99728.56;4954047;28;7129;-76
2024/01/06 07:42:44;;;;;;;;;;;;;;;9.06;60.69;99738.78;4975618;28;6780;-77
2024/01/06 07:45:10;;;;;;;;;;;;;;;9.05;60.91;99731.91;4973999;28;6952;-77
2024/01/06 07:47:36;;;;;;;;;;;;;;;9.06;61.25;99740.44;4956117;28;7055;-76
2024/01/06 07:50:04;;;;;;;;;;;;;;;9.05;61.17;99742.16;4958784;28;6808;-75
2024/01/06 07:52:33;;;;;;;;;;;;;;;9.06;60.93;99755.78;4955635;28;7166;-76
2024/01/06 07:54:58;;;;;;;;;;;;;;;9.07;60.67;99757.53;4982104;28;6791;-73
2024/01/06 07:57:24;;;;;;;;;;;;;;;9.10;61.06;99773.03;4967385;28;7225;-74
2024/01/06 07:59:50;;;;;;;;;;;;;;;9.10;60.37;99762.81;4981134;28;7234;-74
2024/01/06 08:02:17;;;;;;;;;;;;;;;9.12;61.24;99771.41;4982939;28;7287;-74
2024/01/06 08:04:42;;;;;;;;;;;;;;;9.13;61.12;99771.47;4987082;28;6796;-74
2024/01/06 08:07:08;;;;;;;;;;;;;;;9.16;61.11;99771.59;4981604;28;6772;-74
2024/01/06 08:09:34;;;;;;;;;;;;;;;9.18;60.63;99776.78;4962607;28;6776;-73
2024/01/06 08:11:59;;;;;;;;;;;;;;;9.21;60.75;99778.59;4975554;28;7006;-73
2024/01/06 08:14:25;;;;;;;;;;;;;;;9.21;60.40;99776.91;4968351;28;6958;-73
2024/01/06 08:16:50;;;;;;;;;;;;;;;9.23;60.17;99785.53;4985870;28;6784;-73
2024/01/06 08:19:16;;;;;;;;;;;;;;;9.24;60.98;99779.59;4955047;28;7095;-73
2024/01/06 08:21:42;;;;;;;;;;;;;;;9.26;59.85;99787.34;4970599;28;6780;-73
2024/01/06 08:24:07;;;;;;;;;;;;;;;9.28;60.25;99791.72;4972038;28;6944;-74
2024/01/06 08:26:33;;;;;;;;;;;;;;;9.29;60.36;99788.34;4986187;28;7078;-74
2024/01/06 08:28:59;;;;;;;;;;;;;;;9.32;60.53;99790.19;4969332;28;6776;-74
2024/01/06 08:31:24;;;;;;;;;;;;;;;9.35;60.45;99794.53;4967028;28;6772;-75
2024/01/06 08:33:50;;;;;;;;;;;;;;;9.36;60.34;99809.06;4963693;28;6820;-73
2024/01/06 08:36:16;;;;;;;;;;;;;;;9.37;60.14;99808.28;4968695;28;6768;-74
2024/01/06 08:38:42;;;;;;;;;;;;;;;9.36;60.43;99801.41;4959917;28;6882;-73
2024/01/06 08:41:08;;;;;;;;;;;;;;;9.36;59.90;99809.94;4969228;28;7251;-75
2024/01/06 08:43:34;;;;;;;;;;;;;;;9.38;59.57;99815.16;4985257;28;6791;-75
2024/01/06 08:46:00;;;;;;;;;;;;;;;9.37;59.64;99821.94;4972673;28;6772;-75
2024/01/06 08:48:26;;;;;;;;;;;;;;;9.39;59.84;99827.13;4969874;28;7223;-74
2024/01/06 08:50:51;;;;;;;;;;;;;;;9.39;60.46;99825.41;4961974;28;6947;-74
2024/01/06 08:53:17;;;;;;;;;;;;;;;9.42;60.00;99838.38;4967991;28;7151;-74
2024/01/06 08:55:42;;;;;;;;;;;;;;;9.47;60.08;99840.25;4968154;28;6980;-73
2024/01/06 08:58:08;;;;;;;;;;;;;;;9.50;59.66;99840.34;4980766;28;7039;-73
2024/01/06 09:00:33;;;;;;;;;;;;;;;9.52;59.82;99852.41;4970731;28;6800;-74
2024/01/06 09:02:59;;;;;;;;;;;;;;;9.55;59.95;99857.66;4973653;28;6784;-74
2024/01/06 09:05:25;;;;;;;;;;;;;;;9.54;60.01;99855.91;4973175;28;6964;-74
2024/01/06 09:07:51;;;;;;;;;;;;;;;9.55;59.49;99860.22;4980871;28;6977;-73
2024/01/06 09:10:17;;;;;;;;;;;;;;;9.54;60.02;99858.47;4973154;28;7183;-74
2024/01/06 09:12:43;;;;;;;;;;;;;;;9.52;59.73;99869.47;4973195;28;7308;-73
2024/01/06 09:15:09;;;;;;;;;;;;;;;9.52;60.09;99870.31;4987393;28;6934;-74
2024/01/06 09:17:34;;;;;;;;;;;;;;;9.51;59.29;99876.25;4972751;28;7173;-74
2024/01/06 09:20:01;;;;;;;;;;;;;;;9.48;59.62;99876.13;4991527;28;6946;-74
2024/01/06 09:22:27;;;;;;;;;;;;;;;9.48;59.21;99885.47;4977180;28;6949;-73
2024/01/06 09:24:53;;;;;;;;;;;;;;;9.47;59.66;99886.28;4975226;28;7093;-74
2024/01/06 09:27:19;;;;;;;;;;;;;;;9.46;59.93;99887.94;4966000;28;7207;-74
2024/01/06 09:29:45;;;;;;;;;;;;;;;9.44;59.38;99885.34;4988889;28;6812;-74
2024/01/06 09:32:10;;;;;;;;;;;;;;;9.44;59.78;99892.13;4976356;28;6974;-73
2024/01/06 09:34:37;;;;;;;;;;;;;;;9.42;59.48;99891.19;4976928;28;6944;-73
2024/01/06 09:37:03;;;;;;;;;;;;;;;9.40;59.08;99893.66;4974949;28;7003;-74
2024/01/06 09:39:30;;;;;;;;;;;;;;;9.39;59.26;99897.03;4976828;28;6785;-74
2024/01/06 09:41:56;;;;;;;;;;;;;;;9.36;59.17;99906.25;4990893;28;7347;-73
2024/01/06 09:44:22;;;;;;;;;;;;;;;9.34;59.78;99905.31;4975981;28;6988;-74
2024/01/06 09:46:49;;;;;;;;;;;;;;;9.31;59.52;99906.94;4975612;28;6842;-74
2024/01/06 09:49:15;;;;;;;;;;;;;;;9.33;59.43;99913.81;4974531;28;6800;-74
2024/01/06 09:51:40;;;;;;;;;;;;;;;9.35;59.39;99917.28;4975754;28;7326;-74
2024/01/06 09:54:09;;;;;;;;;;;;;;;9.33;58.92;99919.81;4992249;28;6768;-73
2024/01/06 09:56:35;;;;;;;;;;;;;;;9.31;58.89;99919.72;4984567;28;6967;-74
2024/01/06 09:59:02;;;;;;;;;;;;;;;9.27;59.37;99917.84;4977460;28;7140;-73
2024/01/06 10:01:27;;;;;;;;;;;;;;;9.23;59.21;99927.88;4974194;28;6983;-75
2024/01/06 10:03:53;;;;;;;;;;;;;;;9.20;59.74;99932.81;4973850;28;7377;-74
2024/01/06 10:06:20;;;;;;;;;;;;;;;9.19;59.89;99937.06;4966863;28;7978;-74
2024/01/06 10:08:51;;;;;;;;;;;;;;;9.20;59.79;99933.72;4977157;28;6979;-74
2024/01/06 10:11:18;;;;;;;;;;;;;;;9.22;59.88;99936.31;4976597;28;7411;-73
2024/01/06 10:13:44;;;;;;;;;;;;;;;9.23;59.94;99936.41;4975355;28;6789;-73
2024/01/06 10:16:09;;;;;;;;;;;;;;;9.25;59.45;99945.00;4957182;28;7108;-74
2024/01/06 10:18:35;;;;;;;;;;;;;;;9.25;59.53;99945.00;4971633;28;6760;-72
2024/01/06 10:21:05;;;;;;;;;;;;;;;9.25;59.24;99947.56;4974952;28;6967;-74
2024/01/06 10:23:33;;;;;;;;;;;;;;;9.25;59.61;99939.91;4977240;28;7600;-73
2024/01/06 10:25:59;;;;;;;;;;;;;;;9.28;59.36;99947.72;4976632;28;6780;-73
2024/01/06 10:28:25;;;;;;;;;;;;;;;9.30;59.45;99947.78;4992085;28;6855;-73
2024/01/06 10:30:56;;;;;;;;;;;;;;;9.30;59.42;99948.66;4972732;28;6768;-73
2024/01/06 10:33:23;;;;;;;;;;;;;;;9.30;59.67;99952.88;4972576;28;6983;-75
2024/01/06 10:35:49;;;;;;;;;;;;;;;9.33;59.44;99952.16;4974065;28;6776;-75
2024/01/06 10:38:16;;;;;;;;;;;;;;;9.32;59.98;99943.63;4974519;28;6840;-74
2024/01/06 10:40:58;;;;;;;;;;;;;;;9.34;59.90;99951.34;4974905;28;6964;-73
2024/01/06 10:43:30;;;;;;;;;;;;;;;9.35;60.03;99958.22;4992788;28;6910;-73
2024/01/06 10:45:57;;;;;;;;;;;;;;;9.33;60.08;99954.72;4974444;28;7032;-74
2024/01/06 10:48:31;;;;;;;;;;;;;;;9.33;60.20;99959.84;4973710;28;7201;-73
2024/01/06 10:50:59;;;;;;;;;;;;;;;9.33;59.82;99952.16;4969717;28;7343;-73
2024/01/06 10:53:27;;;;;;;;;;;;;;;9.34;59.68;99952.25;4972234;28;7285;-74
2024/01/06 10:55:53;;;;;;;;;;;;;;;9.33;59.64;99950.50;4967647;28;6915;-73
2024/01/06 10:58:19;;;;;;;;;;;;;;;9.31;59.69;99950.41;4963285;28;7035;-72
2024/01/06 11:00:47;;;;;;;;;;;;;;;9.32;60.18;99953.88;4980050;28;6792;-73
2024/01/06 11:03:13;;;;;;;;;;;;;;;9.35;59.94;99959.09;4974681;28;6793;-74
2024/01/06 11:05:43;;;;;;;;;;;;;;;9.39;59.94;99955.00;4983593;28;7222;-74
2024/01/06 11:08:10;;;;;;;;;;;;;;;9.42;59.21;99957.69;4982723;28;6984;-74
2024/01/06 11:10:39;;;;;;;;;;;;;;;9.43;59.48;99951.78;4990996;28;6863;-73
2024/01/06 11:13:16;;;;;;;;;;;;;;;9.46;59.96;99951.91;4990369;28;6999;-75
2024/01/06 11:15:54;;;;;;;;;;;;;;;9.48;59.27;99954.53;4971659;28;6807;-73
2024/01/06 11:18:40;;;;;;;;;;;;;;;9.46;59.92;99962.13;4971716;28;6808;-74
2024/01/06 11:21:23;;;;;;;;;;;;;;;9.42;59.80;99971.38;4973839;28;6800;-72
2024/01/06 11:24:11;;;;;;;;;;;;;;;9.39;59.33;99965.25;4989274;28;6998;-74
2024/01/06 11:26:43;;;;;;;;;;;;;;;9.33;58.86;99964.94;4976713;28;6801;-74
2024/01/06 11:29:10;;;;;;;;;;;;;;;9.30;59.29;99968.22;4990026;28;6932;-74
2024/01/06 11:31:37;;;;;;;;;;;;;;;9.29;59.61;99964.81;4954579;28;7215;-73
2024/01/06 11:34:21;;;;;;;;;;;;;;;9.28;59.65;99963.06;4982554;28;7202;-74
2024/01/06 11:36:50;;;;;;;;;;;;;;;9.26;59.17;99961.25;4958666;28;7055;-74
2024/01/06 11:39:38;;;;;;;;;;;;;;;9.24;59.91;99961.16;4977931;28;6852;-72
2024/01/06 11:42:04;;;;;;;;;;;;;;;9.22;58.95;99957.66;4981351;28;7184;-75
2024/01/06 11:44:34;;;;;;;;;;;;;;;9.21;59.90;99955.91;4989476;28;6942;-74
2024/01/06 11:47:00;;;;;;;;;;;;;;;9.21;59.25;99955.91;4973746;28;7057;-75
2024/01/06 11:49:29;;;;;;;;;;;;;;;9.20;59.73;99955.81;4972853;28;6796;-74
2024/01/06 11:52:01;;;;;;;;;;;;;;;9.19;59.66;99954.97;4965851;28;6955;-74
2024/01/06 11:54:27;;;;;;;;;;;;;;;9.17;59.94;99960.00;4954569;28;6990;-74
2024/01/06 11:56:53;;;;;;;;;;;;;;;9.15;59.01;99958.16;4965960;28;6991;-74
2024/01/06 11:59:20;;;;;;;;;;;;;;;9.15;59.46;99955.63;4958998;28;7334;-73
2024/01/06 12:01:46;;;;;;;;;;;;;;;9.12;59.23;99956.34;4953940;28;7231;-73
2024/01/06 12:04:15;;;;;;;;;;;;;;;9.11;59.58;99963.97;4972210;28;6987;-73
2024/01/06 12:06:41;;;;;;;;;;;;;;;9.08;59.59;99962.13;4991041;28;9094;-74
2024/01/06 12:09:08;;;;;;;;;;;;;;;9.02;59.08;99969.50;4989248;28;6944;-74
2024/01/06 12:11:36;;;;;;;;;;;;;;;8.98;58.52;99973.63;4990284;28;6796;-73
2024/01/06 12:14:02;;;;;;;;;;;;;;;8.94;58.80;99975.97;4966189;28;7010;-75
2024/01/06 12:16:28;;;;;;;;;;;;;;;8.87;59.41;99974.75;4973754;28;6788;-73
2024/01/06 12:18:56;;;;;;;;;;;;;;;8.82;59.65;99971.13;4962954;28;6970;-74
2024/01/06 12:21:25;;;;;;;;;;;;;;;8.75;59.13;99973.38;4990885;28;6935;-74
2024/01/06 12:23:51;;;;;;;;;;;;;;;8.70;59.27;99977.41;4972175;28;7032;-73
2024/01/06 12:26:17;;;;;;;;;;;;;;;8.67;59.37;99976.38;4989276;28;7183;-74
2024/01/06 12:28:48;;;;;;;;;;;;;;;8.65;59.92;99978.84;4981133;28;7037;-73
2024/01/06 12:31:15;;;;;;;;;;;;;;;8.63;58.99;99984.66;4985411;28;6959;-73
2024/01/06 12:33:41;;;;;;;;;;;;;;;8.59;59.62;99976.88;4968727;28;6780;-76
2024/01/06 12:36:08;;;;;;;;;;;;;;;8.58;59.40;99980.22;4960450;28;6800;-76
2024/01/06 12:38:35;;;;;;;;;;;;;;;8.53;59.72;99980.78;4960337;28;7202;-76
2024/01/06 12:41:00;;;;;;;;;;;;;;;8.49;59.51;99979.72;4959078;28;7139;-76
2024/01/06 12:43:27;;;;;;;;;;;;;;;8.48;59.59;99981.41;4976371;28;7673;-76
2024/01/06 12:45:53;;;;;;;;;;;;;;;8.44;59.77;99981.16;4976357;28;6931;-76
2024/01/06 12:48:19;;;;;;;;;;;;;;;8.42;60.10;99983.66;4959937;28;6997;-76
2024/01/06 12:50:44;;;;;;;;;;;;;;;8.39;59.68;99988.59;4958204;28;6828;-76
2024/01/06 12:53:12;;;;;;;;;;;;;;;8.38;59.66;99988.53;4957438;28;6780;-76
2024/01/06 12:55:38;;;;;;;;;;;;;;;8.40;59.26;99990.38;4959613;28;6983;-76
2024/01/06 12:58:04;;;;;;;;;;;;;;;8.39;60.39;99993.72;4963118;28;6789;-77
2024/01/06 13:00:30;;;;;;;;;;;;;;;8.40;60.13;99997.16;4976038;28;7030;-76